Argonne, Wisconsin
Current Conditions -  °F | °C
As of 4:35 AM on Sunday 26 Oct 2014 (Local Time) from KEGV Reporting Station
Clear Clear  
Wind Chill: 33°   Ceiling: Unl
Heat Index: 33°   Visibility: 10mi
Dew Point: 26°   Wind: 3mph
Humidity: 74%   Direction: 270°W
Pressure: 29.94"   Gusts: NA
Location:  45.66°N, 88.88°W
Report Text: KEGV 260935Z AUTO 27003KT 10SM CLR 01/M04 A2994 RMK AO2 T00061036
Loading
Personal Weather Stations






























Interactive Weather Map
Tropical Storm Tracking
New forecast layout! Learn more

10-Day Weather Forecast

Advertisements
Track Severe Weather on mobile